LTAC/ESB METAR and TAF weather

Enter ICAO airport designator
Station Type Date Time Source
LTAC METAR 2022/12/04 05:20 UTC NOAA

LTAC 040520Z 03004KT 290V050 CAVOK 03/M00 Q1025 NOSIG


Station Type Date Time Source
LTAC Decoded METAR 2022/12/04 05:20 UTC NOAA

Ankara / Esenboga, Turkey (LTAC) 40-07N 032-59E 949M
Dec 04, 2022 - 12:20 AM EST / 2022.12.04 0520 UTC
Wind: from the NNE (030 degrees) at 5 MPH (4 KT) (direction variable):0
Visibility: greater than 7 mile(s):0
Temperature: 37 F (3 C)
Dew Point: 32 F (0 C)
Relative Humidity: 80%
Pressure (altimeter): 30.27 in. Hg (1025 hPa)
ob: LTAC 040520Z 03004KT 290V050 CAVOK 03/M00 Q1025 NOSIG
cycle: 5

Station Type Date Time Source
LTAC TAF 2022/12/04 06:03 UTC NOAA

TAF TAF LTAC 040440Z 0406/0506 VRB02KT 9999 SCT040 BKN100

Example: see airport list